Time;durP1;ratioP1;P1;durP2;ratioP2;P2;SDS_P1;SDS_P2;PMS_P1;PMS_P2;Temp;Humidity;BMP_temperature;BMP_pressure;BME280_temperature;BME280_humidity;BME280_pressure;Samples;Min_cycle;Max_cycle;Signal;HPM_P1;HPM_P2
2021/12/04 07:13:37;;;;;;;23.15;9.15;;;;;;;0.79;84.30;96613.47;4841420;29;19931;-51
2021/12/04 07:16:05;;;;;;;27.13;9.85;;;;;;;0.81;84.50;96611.63;4842360;29;20046;-50
2021/12/04 07:18:31;;;;;;;25.98;10.02;;;;;;;0.69;85.07;96611.41;4841693;29;20117;-51
2021/12/04 07:20:56;;;;;;;23.80;9.10;;;;;;;0.61;85.26;96605.81;4840719;29;20109;-50
2021/12/04 07:23:21;;;;;;;25.45;10.30;;;;;;;0.82;84.50;96602.97;4821133;29;20026;-50
2021/12/04 07:25:47;;;;;;;31.75;10.63;;;;;;;0.66;84.74;96609.00;4821399;29;20041;-48
2021/12/04 07:28:12;;;;;;;32.88;10.20;;;;;;;0.82;84.71;96600.38;4824989;29;20026;-53
2021/12/04 07:30:38;;;;;;;31.35;11.65;;;;;;;0.75;84.76;96602.47;4824980;29;20040;-48
2021/12/04 07:33:03;;;;;;;26.05;10.98;;;;;;;0.73;85.08;96598.34;4824887;29;20038;-53
2021/12/04 07:35:28;;;;;;;29.30;11.23;;;;;;;0.79;84.47;96590.22;4824597;29;20045;-52
2021/12/04 07:37:54;;;;;;;28.08;10.45;;;;;;;0.67;85.37;96592.56;4827055;29;20041;-50
2021/12/04 07:40:19;;;;;;;29.55;10.75;;;;;;;0.75;85.20;96591.31;4836584;29;20030;-51
2021/12/04 07:42:45;;;;;;;23.30;10.10;;;;;;;0.86;84.38;96582.09;4824547;29;20061;-52
2021/12/04 07:45:10;;;;;;;28.27;11.40;;;;;;;0.90;85.00;96585.34;4824340;29;20472;-48
2021/12/04 07:47:36;;;;;;;26.33;11.50;;;;;;;0.88;84.70;96587.97;4838083;29;20031;-50
2021/12/04 07:50:02;;;;;;;24.15;10.95;;;;;;;0.95;84.34;96575.56;4822927;29;20034;-49
2021/12/04 07:52:28;;;;;;;24.63;9.68;;;;;;;1.02;84.27;96573.47;4833756;29;20037;-52
2021/12/04 07:54:53;;;;;;;22.17;9.90;;;;;;;1.06;84.32;96580.94;4842240;29;20046;-49
2021/12/04 07:57:20;;;;;;;23.83;9.77;;;;;;;0.92;84.52;96576.56;4842923;29;20479;-49
2021/12/04 07:59:45;;;;;;;21.00;9.00;;;;;;;1.16;83.80;96576.09;4830564;29;20028;-50
2021/12/04 08:02:12;;;;;;;22.38;9.32;;;;;;;1.02;84.01;96569.13;4823312;29;20030;-53
2021/12/04 08:04:37;;;;;;;26.90;9.90;;;;;;;1.25;83.61;96572.19;4823686;29;20101;-52
2021/12/04 08:07:03;;;;;;;24.80;8.82;;;;;;;1.13;84.06;96568.53;4835043;29;20034;-53
2021/12/04 08:09:28;;;;;;;25.90;9.98;;;;;;;0.92;84.74;96563.66;4837352;29;20483;-53
2021/12/04 08:11:54;;;;;;;22.17;8.18;;;;;;;1.36;83.43;96569.81;4823657;29;20086;-47
2021/12/04 08:14:19;;;;;;;24.63;8.73;;;;;;;1.25;83.45;96562.69;4823762;29;20034;-54
2021/12/04 08:16:46;;;;;;;22.17;9.13;;;;;;;1.37;83.24;96559.38;4824372;29;20030;-49
2021/12/04 08:19:12;;;;;;;20.30;8.88;;;;;;;1.22;83.59;96555.09;4824056;29;20030;-50
2021/12/04 08:21:38;;;;;;;21.08;8.75;;;;;;;1.30;83.36;96546.91;4825140;29;20033;-49
2021/12/04 08:24:06;;;;;;;21.67;8.15;;;;;;;1.50;82.65;96541.41;4822843;29;20042;-53
2021/12/04 08:26:31;;;;;;;19.98;8.68;;;;;;;1.49;82.64;96552.66;4823915;29;20434;-51
2021/12/04 08:28:57;;;;;;;20.73;8.57;;;;;;;1.60;82.28;96550.28;4824282;29;20034;-49
2021/12/04 08:31:22;;;;;;;22.55;9.52;;;;;;;1.35;83.07;96540.56;4824020;29;20026;-50
2021/12/04 08:33:47;;;;;;;22.48;8.73;;;;;;;1.54;82.47;96552.38;4824516;29;20083;-49
2021/12/04 08:36:13;;;;;;;24.70;9.70;;;;;;;1.33;83.41;96557.06;4837922;29;20775;-53
2021/12/04 08:38:41;;;;;;;23.02;8.80;;;;;;;1.40;83.19;96550.63;4823883;29;20036;-51
2021/12/04 08:41:06;;;;;;;21.90;9.43;;;;;;;1.33;83.24;96559.66;4824120;29;20083;-50
2021/12/04 08:43:32;;;;;;;24.92;10.65;;;;;;;1.38;83.38;96555.88;4824720;29;20630;-50
2021/12/04 08:46:00;;;;;;;23.17;9.63;;;;;;;1.26;84.01;96550.59;4820848;29;20022;-52
2021/12/04 08:48:26;;;;;;;20.83;9.25;;;;;;;1.43;83.66;96553.03;4824907;29;20049;-51
2021/12/04 08:50:51;;;;;;;23.95;9.07;;;;;;;1.48;82.98;96553.59;4827914;29;20034;-53
2021/12/04 08:53:16;;;;;;;23.13;9.60;;;;;;;1.38;83.97;96550.72;4822933;29;20040;-53
2021/12/04 08:55:43;;;;;;;22.10;9.13;;;;;;;1.58;83.04;96546.97;4823075;29;20026;-48
2021/12/04 08:58:08;;;;;;;21.65;10.27;;;;;;;1.58;82.83;96543.53;4823038;29;20071;-53
2021/12/04 09:00:47;;;;;;;20.80;9.13;;;;;;;1.62;82.87;96545.03;4822236;29;20050;-50
2021/12/04 09:03:13;;;;;;;22.58;9.10;;;;;;;1.93;82.12;96544.03;4818304;29;20030;-50
2021/12/04 09:05:38;;;;;;;21.30;8.77;;;;;;;2.07;81.46;96544.03;4840862;29;20052;-49
2021/12/04 09:08:05;;;;;;;19.48;8.82;;;;;;;2.06;81.30;96547.50;4841199;29;20402;-49
2021/12/04 09:10:30;;;;;;;20.60;9.05;;;;;;;1.81;82.14;96547.34;4840357;29;20030;-48
2021/12/04 09:12:56;;;;;;;39.88;12.93;;;;;;;1.93;82.25;96543.19;4822342;29;20418;-48
2021/12/04 09:15:24;;;;;;;24.85;10.15;;;;;;;1.79;83.41;96542.28;4822392;29;20090;-48
2021/12/04 09:17:49;;;;;;;25.40;10.15;;;;;;;1.96;82.44;96535.25;4823740;29;20547;-47
2021/12/04 09:20:16;;;;;;;24.50;9.95;;;;;;;1.88;82.53;96535.72;4823107;29;20038;-48
2021/12/04 09:22:43;;;;;;;21.17;9.80;;;;;;;1.98;82.38;96541.16;4821229;29;20483;-49
2021/12/04 09:25:12;;;;;;;24.85;9.98;;;;;;;1.98;82.45;96533.41;4822462;29;20030;-48
2021/12/04 09:28:00;;;;;;;26.75;10.23;;;;;;;1.93;82.52;96533.69;4822911;29;20037;-49
2021/12/04 09:30:51;;;;;;;24.15;9.43;;;;;;;1.99;82.69;96532.47;4825310;29;20022;-48
2021/12/04 10:02:49;;;;;;;21.05;9.13;;;;;;;2.28;82.91;96491.91;4834299;29;20651;-53
2021/12/04 10:05:34;;;;;;;21.20;9.60;;;;;;;2.43;82.03;96485.75;4832261;29;20037;-54
2021/12/04 10:18:49;;;;;;;20.00;8.77;;;;;;;2.46;82.75;96467.44;4826255;29;20517;-47
2021/12/04 10:24:25;;;;;;;24.13;9.52;;;;;;;2.53;82.95;96453.19;4834590;29;20122;-50
2021/12/04 10:35:00;;;;;;;22.75;10.10;;;;;;;2.79;81.94;96432.56;4832620;29;20392;-50
2021/12/04 10:37:27;;;;;;;23.23;10.00;;;;;;;2.79;82.82;96428.19;4825884;29;20026;-51
2021/12/04 10:40:12;;;;;;;20.58;9.77;;;;;;;2.83;82.55;96423.66;4825833;29;20139;-49
2021/12/04 10:42:52;;;;;;;25.42;9.77;;;;;;;2.94;81.78;96417.75;4825155;29;20088;-51
2021/12/04 10:45:18;;;;;;;19.80;8.57;;;;;;;2.89;82.39;96412.88;4825074;29;20486;-51
2021/12/04 10:47:57;;;;;;;22.00;10.25;;;;;;;2.88;82.21;96406.03;4826053;29;20327;-50
2021/12/04 10:53:17;;;;;;;21.15;9.68;;;;;;;2.88;82.42;96394.84;4824906;29;20054;-52
2021/12/04 11:04:08;;;;;;;21.83;9.88;;;;;;;3.09;82.64;96370.09;4837102;29;20045;-51
2021/12/04 11:21:11;;;;;;;21.67;9.13;;;;;;;2.96;83.36;96362.34;4824299;29;20537;-48
2021/12/04 11:43:04;;;;;;;18.67;9.63;;;;;;;3.19;84.15;96340.03;4805798;29;20033;-47
2021/12/04 11:45:47;;;;;;;19.33;10.75;;;;;;;3.24;84.54;96337.16;4834913;29;20030;-45
2021/12/04 11:48:12;;;;;;;21.17;10.43;;;;;;;3.33;83.68;96328.72;4824517;29;20040;-47
2021/12/04 11:50:42;;;;;;;24.20;11.23;;;;;;;3.09;84.32;96326.88;4824102;29;20030;-47
2021/12/04 11:53:17;;;;;;;28.80;10.02;;;;;;;3.19;84.20;96323.66;4823548;29;20356;-48
2021/12/04 11:55:45;;;;;;;22.85;9.70;;;;;;;3.22;84.02;96320.88;4824076;29;20053;-50
2021/12/04 11:58:27;;;;;;;23.63;9.75;;;;;;;3.24;84.38;96308.66;4823839;29;20038;-46
2021/12/04 12:00:55;;;;;;;19.88;9.88;;;;;;;3.19;84.32;96310.72;4822990;29;20061;-47
2021/12/04 12:03:23;;;;;;;21.13;10.27;;;;;;;3.21;85.04;96295.91;4826027;29;20022;-46
2021/12/04 12:05:56;;;;;;;21.17;10.77;;;;;;;3.17;85.07;96303.06;4841956;29;20026;-47
2021/12/04 12:08:43;;;;;;;24.00;11.10;;;;;;;3.24;85.21;96295.69;4832483;29;20060;-48
2021/12/04 12:11:24;;;;;;;21.38;9.93;;;;;;;3.21;85.43;96288.97;4823281;29;20023;-48
2021/12/04 12:13:51;;;;;;;21.88;9.52;;;;;;;3.31;84.59;96283.97;4838428;29;20036;-48
2021/12/04 12:16:22;;;;;;;19.30;8.70;;;;;;;3.37;84.52;96278.31;4841863;29;20037;-47
2021/12/04 12:18:54;;;;;;;19.20;9.63;;;;;;;3.25;85.33;96279.22;4835837;29;20062;-48
2021/12/04 12:21:22;;;;;;;19.75;9.90;;;;;;;3.39;84.15;96273.06;4833379;29;20029;-48
2021/12/04 12:26:45;;;;;;;17.55;9.18;;;;;;;3.38;85.13;96266.22;4841045;29;20073;-48
2021/12/04 12:32:22;;;;;;;18.65;9.38;;;;;;;3.41;84.99;96261.66;4822979;29;20042;-47
2021/12/04 12:37:16;;;;;;;22.90;10.27;;;;;;;3.53;85.04;96249.56;4821508;29;20076;-48
2021/12/04 12:39:59;;;;;;;22.60;10.55;;;;;;;3.54;85.16;96238.25;4822903;29;20238;-49
2021/12/04 12:42:26;;;;;;;24.83;10.35;;;;;;;3.56;85.22;96226.03;4804637;29;20040;-51
2021/12/04 12:44:51;;;;;;;23.52;12.07;;;;;;;3.64;84.50;96225.47;4804510;29;20451;-51
2021/12/04 12:47:17;;;;;;;23.38;12.52;;;;;;;3.60;85.03;96217.09;4812113;29;20125;-50
2021/12/04 12:49:44;;;;;;;21.63;12.07;;;;;;;3.63;84.51;96227.25;4822734;29;20035;-49
2021/12/04 12:52:12;;;;;;;22.92;11.38;;;;;;;3.56;85.55;96224.25;4822790;29;20403;-47
2021/12/04 12:54:43;;;;;;;19.92;11.30;;;;;;;3.66;85.44;96219.25;4822937;29;20406;-50
2021/12/04 12:57:39;;;;;;;23.57;12.60;;;;;;;3.44;85.47;96217.38;4823113;29;20427;-49
2021/12/04 13:14:28;;;;;;;19.80;10.38;;;;;;;3.77;85.04;96213.28;4823238;29;20038;-47
2021/12/04 13:17:09;;;;;;;21.67;9.83;;;;;;;3.91;84.24;96210.50;4823169;29;20037;-51
2021/12/04 13:19:37;;;;;;;19.08;9.55;;;;;;;3.76;84.98;96190.88;4822989;29;20556;-52
2021/12/04 13:22:05;;;;;;;22.98;10.45;;;;;;;3.80;85.30;96197.50;4823167;29;20066;-49
2021/12/04 13:24:33;;;;;;;25.35;10.85;;;;;;;3.61;85.96;96195.41;4836344;29;20575;-49
2021/12/04 13:29:34;;;;;;;18.83;9.60;;;;;;;3.57;86.14;96194.78;4841040;29;20045;-51
2021/12/04 13:31:59;;;;;;;18.27;9.57;;;;;;;3.53;86.75;96190.78;4834877;29;20038;-48
2021/12/04 13:34:26;;;;;;;17.92;9.60;;;;;;;3.47;87.04;96186.03;4826239;29;20026;-53
2021/12/04 13:36:53;;;;;;;18.25;9.48;;;;;;;3.67;86.70;96196.72;4832748;29;20045;-51
2021/12/04 13:39:19;;;;;;;19.38;9.60;;;;;;;3.69;86.50;96200.88;4844386;29;20069;-53
2021/12/04 13:41:44;;;;;;;17.17;9.48;;;;;;;3.76;86.44;96191.72;4826594;29;20244;-54
2021/12/04 13:44:11;;;;;;;18.20;9.52;;;;;;;3.78;85.77;96183.81;4827528;29;20079;-49
2021/12/04 13:46:42;;;;;;;17.30;9.15;;;;;;;3.68;85.92;96188.88;4826356;29;20026;-51
2021/12/04 13:49:08;;;;;;;18.63;9.27;;;;;;;3.55;86.66;96183.72;4828455;29;20074;-53
2021/12/04 13:51:33;;;;;;;20.75;10.13;;;;;;;3.53;87.10;96180.41;4833073;29;20558;-52
2021/12/04 13:54:01;;;;;;;19.75;10.32;;;;;;;3.55;87.01;96177.72;4846283;29;20046;-50
2021/12/04 13:56:27;;;;;;;16.55;9.23;;;;;;;3.56;87.04;96175.00;4844493;29;20033;-53
2021/12/04 13:58:57;;;;;;;15.75;8.55;;;;;;;3.66;86.59;96166.56;4846943;29;20034;-52
2021/12/04 14:01:23;;;;;;;16.98;8.93;;;;;;;3.81;85.58;96165.44;4835750;29;20022;-54
2021/12/04 14:03:50;;;;;;;18.30;8.38;;;;;;;3.73;86.43;96165.19;4826191;29;20046;-52
2021/12/04 14:06:17;;;;;;;16.88;8.57;;;;;;;3.63;86.72;96167.63;4841782;29;20034;-53
2021/12/04 14:08:43;;;;;;;17.25;8.90;;;;;;;3.68;86.00;96167.25;4860109;29;20026;-54
2021/12/04 14:11:08;;;;;;;17.02;9.15;;;;;;;3.66;86.71;96159.63;4841994;29;20105;-54
2021/12/04 14:13:33;;;;;;;19.65;9.38;;;;;;;3.78;85.64;96152.69;4827638;29;20034;-53
2021/12/04 14:15:59;;;;;;;18.95;9.20;;;;;;;3.86;85.21;96152.13;4826424;29;20045;-52
2021/12/04 14:18:25;;;;;;;17.50;9.05;;;;;;;3.74;86.25;96151.25;4831216;29;20041;-53
2021/12/04 14:20:53;;;;;;;15.82;8.50;;;;;;;3.75;85.92;96147.72;4845773;29;20030;-52
2021/12/04 14:23:18;;;;;;;16.98;9.27;;;;;;;3.72;86.34;96142.78;4829708;29;20030;-52
2021/12/04 14:25:45;;;;;;;16.98;9.55;;;;;;;3.65;86.15;96149.34;4829490;29;20158;-53
2021/12/04 14:28:17;;;;;;;19.27;9.18;;;;;;;3.60;86.88;96138.50;4830497;29;20059;-49
2021/12/04 14:30:45;;;;;;;16.92;8.60;;;;;;;3.63;86.54;96143.47;4831419;29;20037;-53
2021/12/04 14:33:12;;;;;;;17.92;8.52;;;;;;;3.57;86.66;96142.94;4831989;29;20078;-51
2021/12/04 14:35:40;;;;;;;143.43;62.92;;;;;;;3.57;86.21;96140.38;4844695;29;20064;-54
2021/12/04 14:38:08;;;;;;;74.18;35.85;;;;;;;3.48;87.27;96135.03;4831396;29;20466;-52
2021/12/04 14:40:45;;;;;;;34.83;18.63;;;;;;;3.57;86.24;96135.19;4847472;29;20025;-49
2021/12/04 14:43:18;;;;;;;74.50;36.45;;;;;;;3.49;87.18;96127.16;4830557;29;20513;-51
2021/12/04 14:45:46;;;;;;;187.60;65.95;;;;;;;3.44;86.86;96129.25;4829815;29;20030;-54
2021/12/04 14:48:16;;;;;;;105.72;43.00;;;;;;;3.38;87.32;96134.06;4843839;29;20030;-51
2021/12/04 14:50:43;;;;;;;85.03;35.83;;;;;;;3.43;87.18;96132.78;4843976;29;20030;-53
2021/12/04 14:53:11;;;;;;;78.93;36.35;;;;;;;3.48;87.43;96125.50;4831955;29;20554;-52
2021/12/04 14:55:38;;;;;;;55.92;30.45;;;;;;;3.47;86.59;96131.59;4842079;29;20042;-52
2021/12/04 14:58:11;;;;;;;45.08;25.90;;;;;;;3.47;86.73;96133.38;4818379;29;20034;-52
2021/12/04 15:00:38;;;;;;;108.75;50.25;;;;;;;3.50;86.41;96128.78;4830523;29;20030;-48
2021/12/04 15:03:12;;;;;;;107.28;49.63;;;;;;;3.55;86.28;96137.06;4830055;29;20053;-53
2021/12/04 15:05:45;;;;;;;64.72;30.98;;;;;;;3.45;86.59;96130.09;4829057;29;20033;-51
2021/12/04 15:08:10;;;;;;;38.70;21.88;;;;;;;3.61;86.26;96129.78;4822388;29;20649;-52
2021/12/04 15:10:36;;;;;;;27.20;16.15;;;;;;;3.55;86.23;96125.88;4825460;29;20051;-53
2021/12/04 15:13:02;;;;;;;26.42;16.92;;;;;;;3.45;86.87;96130.91;4825749;29;20041;-53
2021/12/04 15:15:29;;;;;;;23.95;14.82;;;;;;;3.32;87.85;96130.13;4848321;29;20033;-50
2021/12/04 15:17:56;;;;;;;23.50;12.52;;;;;;;3.44;87.21;96131.84;4860154;29;20049;-50
2021/12/04 15:20:28;;;;;;;28.30;16.25;;;;;;;3.45;87.31;96132.69;4829671;29;20056;-49
2021/12/04 15:22:57;;;;;;;26.75;16.23;;;;;;;3.35;87.35;96119.56;4831611;29;20091;-50
2021/12/04 15:25:25;;;;;;;21.50;13.20;;;;;;;3.60;86.91;96125.53;4847738;29;20029;-52
2021/12/04 15:27:51;;;;;;;24.15;13.60;;;;;;;3.52;87.13;96126.09;4848548;29;20042;-50
2021/12/04 15:30:17;;;;;;;24.45;12.70;;;;;;;3.37;87.45;96112.47;4832473;29;20060;-51
2021/12/04 15:32:43;;;;;;;24.48;12.68;;;;;;;3.38;87.93;96116.75;4843636;29;20034;-49
2021/12/04 15:35:25;;;;;;;19.98;11.20;;;;;;;3.45;87.50;96105.00;4842824;29;20034;-53
2021/12/04 15:38:21;;;;;;;19.38;11.48;;;;;;;3.50;87.08;96105.47;4839834;29;20035;-52
2021/12/04 15:40:59;;;;;;;20.35;9.73;;;;;;;3.31;88.07;96108.59;4840190;29;20046;-51
2021/12/04 15:43:33;;;;;;;19.30;10.48;;;;;;;3.39;87.65;96105.44;4848112;29;20717;-53
2021/12/04 15:54:16;;;;;;;22.55;11.05;;;;;;;3.78;86.67;96104.25;4835434;29;20098;-49
2021/12/04 15:56:46;;;;;;;21.77;12.13;;;;;;;3.60;87.46;96099.63;4829056;29;20031;-48
2021/12/04 15:59:13;;;;;;;18.67;10.15;;;;;;;3.67;87.06;96093.03;4827881;29;20026;-52
2021/12/04 16:01:39;;;;;;;18.83;10.75;;;;;;;3.64;87.11;96103.63;4829481;29;20036;-49
2021/12/04 16:04:04;;;;;;;19.77;10.25;;;;;;;3.68;87.41;96092.94;4828849;29;20031;-49
2021/12/04 16:06:39;;;;;;;18.45;10.23;;;;;;;3.67;87.08;96108.59;4836788;29;20092;-51
2021/12/04 16:09:05;;;;;;;16.83;9.65;;;;;;;3.76;87.52;96107.91;4847426;29;20049;-51
2021/12/04 16:11:37;;;;;;;130.82;46.97;;;;;;;3.76;87.57;96105.31;4847633;29;20082;-51
2021/12/04 16:14:04;;;;;;;44.95;19.92;;;;;;;3.66;88.14;96096.56;4844898;29;20042;-53
2021/12/04 16:16:32;;;;;;;22.60;12.02;;;;;;;3.79;88.11;96105.91;4829448;29;20031;-50
2021/12/04 16:18:58;;;;;;;20.48;10.75;;;;;;;3.94;87.39;96103.94;4829002;29;20050;-51
2021/12/04 16:21:24;;;;;;;26.90;13.70;;;;;;;3.90;87.13;96105.09;4839350;29;20101;-49
2021/12/04 16:23:52;;;;;;;27.48;13.85;;;;;;;3.78;88.12;96116.38;4842065;29;20443;-50
2021/12/04 16:26:19;;;;;;;26.70;13.85;;;;;;;3.77;88.30;96115.56;4831235;29;20070;-54
2021/12/04 16:29:07;;;;;;;24.40;11.75;;;;;;;3.92;88.27;96123.97;4829020;29;20030;-49
2021/12/04 16:31:53;;;;;;;25.90;13.38;;;;;;;3.77;88.81;96122.53;4828778;29;20059;-53
2021/12/04 16:37:17;;;;;;;;;;;;;;;3.95;88.46;96134.09;4838842;29;20033;-49
2021/12/04 16:39:42;;;;;;;186.68;72.97;;;;;;;3.97;88.25;96136.59;4836175;29;19948;-48
2021/12/04 16:42:09;;;;;;;90.63;41.35;;;;;;;3.90;88.60;96145.78;4830951;29;20493;-48
2021/12/04 16:44:35;;;;;;;77.47;39.20;;;;;;;3.94;88.95;96142.00;4830280;29;20098;-49
2021/12/04 16:47:01;;;;;;;39.45;21.40;;;;;;;3.84;89.75;96152.25;4829191;29;20027;-51
2021/12/04 16:49:28;;;;;;;27.92;16.88;;;;;;;3.88;89.82;96160.63;4829157;29;20519;-51
2021/12/04 16:59:49;;;;;;;37.78;23.23;;;;;;;4.38;87.21;96185.38;4832988;29;20376;-50
2021/12/04 17:02:14;;;;;;;39.65;26.90;;;;;;;4.15;88.27;96173.31;4830025;29;20023;-50
2021/12/04 17:04:40;;;;;;;48.08;31.25;;;;;;;4.07;88.80;96154.91;4833118;29;20403;-51
2021/12/04 17:07:07;;;;;;;40.10;26.90;;;;;;;4.09;88.67;96171.16;4829173;29;20042;-50
2021/12/04 17:09:32;;;;;;;37.70;23.35;;;;;;;4.17;88.63;96171.44;4839252;29;20038;-51
2021/12/04 17:11:58;;;;;;;36.35;20.60;;;;;;;4.07;88.76;96162.69;4810389;29;20030;-51
2021/12/04 17:14:25;;;;;;;37.00;20.25;;;;;;;4.12;88.97;96134.59;4810364;29;20038;-52
2021/12/04 17:16:51;;;;;;;33.78;19.65;;;;;;;4.12;88.89;96129.41;4811149;29;20088;-52
2021/12/04 17:19:17;;;;;;;36.53;20.95;;;;;;;4.19;88.94;96130.59;4839852;29;20030;-53
2021/12/04 17:21:44;;;;;;;42.45;22.55;;;;;;;4.30;88.43;96117.63;4844789;29;20108;-54
2021/12/04 17:24:10;;;;;;;36.85;21.55;;;;;;;4.21;88.82;96088.03;4857142;29;20551;-52
2021/12/04 17:26:36;;;;;;;28.35;16.35;;;;;;;4.37;88.24;96090.28;4839054;29;20555;-53
2021/12/04 17:29:01;;;;;;;51.85;30.40;;;;;;;4.37;88.30;96107.59;4836320;29;20034;-54
2021/12/04 17:31:27;;;;;;;37.55;22.42;;;;;;;4.46;87.84;96128.50;4824521;29;20050;-51
2021/12/04 17:33:56;;;;;;;27.88;18.13;;;;;;;4.55;87.87;96136.53;4834131;29;20072;-51
2021/12/04 17:36:25;;;;;;;43.15;28.70;;;;;;;4.41;88.59;96130.63;4842482;29;20022;-53
2021/12/04 17:38:51;;;;;;;47.25;29.42;;;;;;;4.28;88.58;96135.09;4826114;29;20038;-53
2021/12/04 17:41:18;;;;;;;40.67;24.45;;;;;;;4.31;88.91;96145.25;4828360;29;20054;-51
2021/12/04 17:43:44;;;;;;;37.13;22.40;;;;;;;4.28;88.98;96148.09;4841333;29;20635;-50
2021/12/04 17:46:11;;;;;;;48.97;30.10;;;;;;;4.39;88.86;96147.25;4830841;29;20026;-51
2021/12/04 17:48:37;;;;;;;65.47;39.67;;;;;;;4.14;89.90;96148.31;4835679;29;20518;-50
2021/12/04 17:51:03;;;;;;;40.88;25.67;;;;;;;4.20;90.12;96143.47;4827127;29;20026;-51
2021/12/04 17:53:29;;;;;;;32.25;19.23;;;;;;;4.23;89.43;96151.03;4826145;29;20030;-52
2021/12/04 17:55:54;;;;;;;29.55;15.57;;;;;;;4.13;89.76;96157.88;4827424;29;20038;-52
2021/12/04 17:58:20;;;;;;;24.13;14.05;;;;;;;4.20;89.57;96160.81;4827641;29;20034;-54
2021/12/04 18:00:50;;;;;;;28.80;13.90;;;;;;;4.34;89.00;96150.22;4830840;29;20055;-51
2021/12/04 18:03:18;;;;;;;25.75;14.75;;;;;;;4.34;88.95;96154.59;4830224;29;20034;-52
2021/12/04 18:05:45;;;;;;;27.80;16.45;;;;;;;4.50;88.56;96160.25;4830000;29;20444;-51
2021/12/04 18:08:13;;;;;;;27.23;16.08;;;;;;;4.49;88.70;96148.22;4826904;29;20026;-50
2021/12/04 18:10:38;;;;;;;29.55;16.23;;;;;;;4.53;88.31;96158.22;4828192;29;20403;-52
2021/12/04 18:13:06;;;;;;;27.38;15.45;;;;;;;4.42;88.87;96160.84;4828492;29;20480;-52
2021/12/04 18:15:37;;;;;;;26.33;14.95;;;;;;;4.56;88.63;96153.75;4830190;29;20034;-51
2021/12/04 18:18:03;;;;;;;32.83;18.70;;;;;;;4.63;88.01;96153.16;4829788;29;20489;-50
2021/12/04 18:20:28;;;;;;;38.03;26.60;;;;;;;4.60;89.21;96153.41;4830627;29;20815;-53
2021/12/04 18:22:54;;;;;;;37.75;27.08;;;;;;;4.57;88.95;96160.59;4828722;29;20019;-51
2021/12/04 18:25:19;;;;;;;42.35;28.48;;;;;;;4.60;88.84;96170.75;4831367;29;20345;-52
2021/12/04 18:27:45;;;;;;;38.60;24.73;;;;;;;4.54;88.97;96156.47;4833479;29;20082;-52
2021/12/04 18:30:13;;;;;;;39.28;22.83;;;;;;;4.62;88.65;96168.88;4832705;29;20038;-51
2021/12/04 18:32:39;;;;;;;32.67;20.98;;;;;;;4.57;88.71;96165.78;4831349;29;20026;-52
2021/12/04 18:35:05;;;;;;;37.90;22.33;;;;;;;4.71;88.38;96168.16;4845005;29;20041;-48
2021/12/04 18:37:30;;;;;;;42.65;24.67;;;;;;;4.63;88.04;96160.13;4832147;29;20070;-53
2021/12/04 18:39:55;;;;;;;47.30;27.52;;;;;;;4.60;88.25;96149.97;4831392;29;20035;-51
2021/12/04 18:42:21;;;;;;;44.45;26.50;;;;;;;4.67;87.99;96151.16;4831391;29;20502;-51
2021/12/04 18:44:46;;;;;;;48.78;29.77;;;;;;;4.67;88.27;96156.34;4831859;29;20078;-52
2021/12/04 18:47:12;;;;;;;50.00;31.35;;;;;;;4.66;88.22;96160.72;4829782;29;20026;-52
2021/12/04 18:49:37;;;;;;;61.70;35.63;;;;;;;4.80;87.94;96157.06;4832014;29;20033;-52
2021/12/04 18:52:03;;;;;;;63.67;38.40;;;;;;;4.71;88.33;96157.75;4831925;29;20034;-52
2021/12/04 18:54:28;;;;;;;57.00;34.03;;;;;;;4.82;88.39;96164.72;4843309;29;20070;-48
2021/12/04 18:56:55;;;;;;;44.17;26.38;;;;;;;4.97;87.85;96153.97;4815058;29;20030;-49
2021/12/04 18:59:21;;;;;;;51.00;26.60;;;;;;;5.28;86.73;96151.53;4815719;29;20035;-54
2021/12/04 19:01:47;;;;;;;51.80;26.75;;;;;;;5.14;87.04;96157.81;4832992;29;20028;-51
2021/12/04 19:04:13;;;;;;;43.67;22.45;;;;;;;5.16;86.63;96152.50;4832839;29;20113;-49
2021/12/04 19:06:39;;;;;;;30.05;17.25;;;;;;;5.17;87.73;96155.00;4836508;29;20090;-52
2021/12/04 19:09:06;;;;;;;28.63;16.25;;;;;;;5.30;87.49;96160.03;4815775;29;20034;-50
2021/12/04 19:11:32;;;;;;;30.52;15.48;;;;;;;5.52;86.94;96153.13;4842153;29;20046;-53
2021/12/04 19:13:57;;;;;;;22.80;12.10;;;;;;;5.41;87.42;96154.81;4834233;29;20030;-49
2021/12/04 19:16:22;;;;;;;13.90;7.60;;;;;;;5.46;88.71;96155.25;4836079;29;20063;-50
2021/12/04 19:18:48;;;;;;;20.58;10.98;;;;;;;5.32;88.19;96147.72;4823003;29;20084;-53
2021/12/04 19:21:13;;;;;;;19.67;10.32;;;;;;;5.42;87.13;96156.44;4825272;29;20030;-50
2021/12/04 19:23:39;;;;;;;24.25;13.32;;;;;;;5.31;86.71;96146.09;4832009;29;20026;-51
2021/12/04 19:26:05;;;;;;;21.80;11.25;;;;;;;5.47;86.15;96141.31;4846886;29;20041;-51
2021/12/04 19:28:30;;;;;;;23.83;13.73;;;;;;;5.39;86.47;96145.47;4833375;29;20034;-51
2021/12/04 19:31:03;;;;;;;37.72;20.15;;;;;;;5.42;86.22;96146.03;4832565;29;20038;-49
2021/12/04 19:51:46;;;;;;;66.95;32.63;;;;;;;5.69;86.75;96165.56;4832564;29;20475;-51
2021/12/04 19:56:51;;;;;;;59.60;30.42;;;;;;;5.76;86.91;96182.34;4814644;29;20444;-52
2021/12/04 19:59:19;;;;;;;70.43;36.42;;;;;;;5.86;86.65;96185.03;4836575;29;20059;-48
2021/12/04 20:04:42;;;;;;;80.50;38.63;;;;;;;5.72;87.77;96204.34;4831322;29;20102;-52
2021/12/04 20:07:24;;;;;;;75.25;33.60;;;;;;;5.81;87.79;96200.16;4831774;29;20026;-52
2021/12/04 20:15:14;;;;;;;32.42;14.90;;;;;;;6.04;86.07;96264.22;4832602;29;20057;-51
2021/12/04 20:17:42;;;;;;;35.17;19.75;;;;;;;5.99;84.37;96279.38;4830205;29;20037;-52
2021/12/04 20:20:08;;;;;;;9.73;4.90;;;;;;;5.68;82.65;96310.41;4831678;29;20053;-51
2021/12/04 20:22:33;;;;;;;13.85;7.60;;;;;;;5.51;82.99;96317.91;4831112;29;20023;-49
2021/12/04 20:25:00;;;;;;;11.30;6.18;;;;;;;5.24;84.04;96317.31;4832092;29;20038;-51
2021/12/04 20:27:28;;;;;;;9.35;5.07;;;;;;;5.09;83.75;96333.22;4831806;29;20040;-49
2021/12/04 20:30:15;;;;;;;7.88;3.70;;;;;;;5.00;83.66;96333.00;4832955;29;20030;-49
2021/12/04 20:32:51;;;;;;;39.50;18.25;;;;;;;4.89;84.11;96330.41;4831488;29;20033;-51
2021/12/04 20:36:10;;;;;;;7.72;3.72;;;;;;;4.92;83.42;96356.16;4831350;29;20034;-48
2021/12/04 21:28:10;;;;;;;10.90;5.60;;;;;;;4.56;80.39;96471.34;4832633;29;20037;-51
